sensor_id;sensor_type;location;lat;lon;timestamp;pressure;altitude;pressure_sealevel;temperature;humidity
34124;BME280;13153;52.316;21.166;2024-01-10T00:02:00;102168.25;;;-2.72;48.89
34124;BME280;13153;52.316;21.166;2024-01-10T00:04:26;102168.16;;;-2.65;49.05
34124;BME280;13153;52.316;21.166;2024-01-10T00:06:52;102169.00;;;-2.73;49.02
34124;BME280;13153;52.316;21.166;2024-01-10T00:09:17;102176.38;;;-2.76;48.93
34124;BME280;13153;52.316;21.166;2024-01-10T00:11:43;102184.13;;;-2.76;49.04
34124;BME280;13153;52.316;21.166;2024-01-10T00:14:09;102192.66;;;-2.69;49.19
34124;BME280;13153;52.316;21.166;2024-01-10T00:16:35;102196.66;;;-2.63;49.31
34124;BME280;13153;52.316;21.166;2024-01-10T00:19:01;102195.16;;;-2.61;49.23
34124;BME280;13153;52.316;21.166;2024-01-10T00:21:27;102192.91;;;-2.58;48.74
34124;BME280;13153;52.316;21.166;2024-01-10T00:23:53;102190.75;;;-2.62;48.77
34124;BME280;13153;52.316;21.166;2024-01-10T00:26:19;102182.69;;;-2.66;49.17
34124;BME280;13153;52.316;21.166;2024-01-10T00:28:44;102188.00;;;-2.64;48.92
34124;BME280;13153;52.316;21.166;2024-01-10T00:31:12;102186.69;;;-2.60;49.29
34124;BME280;13153;52.316;21.166;2024-01-10T00:33:39;102188.44;;;-2.68;49.27
34124;BME280;13153;52.316;21.166;2024-01-10T00:36:06;102179.97;;;-2.67;48.73
34124;BME280;13153;52.316;21.166;2024-01-10T00:38:32;102184.44;;;-2.73;48.87
34124;BME280;13153;52.316;21.166;2024-01-10T00:40:58;102186.44;;;-2.71;49.23
34124;BME280;13153;52.316;21.166;2024-01-10T00:43:24;102174.47;;;-2.70;49.07
34124;BME280;13153;52.316;21.166;2024-01-10T00:45:50;102175.22;;;-2.71;49.08
34124;BME280;13153;52.316;21.166;2024-01-10T00:48:16;102171.72;;;-2.72;48.88
34124;BME280;13153;52.316;21.166;2024-01-10T00:50:43;102176.88;;;-2.72;49.36
34124;BME280;13153;52.316;21.166;2024-01-10T00:53:10;102175.22;;;-2.71;48.97
34124;BME280;13153;52.316;21.166;2024-01-10T00:55:36;102169.91;;;-2.73;48.96
34124;BME280;13153;52.316;21.166;2024-01-10T00:58:01;102167.59;;;-2.78;48.83
34124;BME280;13153;52.316;21.166;2024-01-10T01:00:27;102165.34;;;-2.75;49.35
34124;BME280;13153;52.316;21.166;2024-01-10T01:02:53;102159.28;;;-2.76;49.08
34124;BME280;13153;52.316;21.166;2024-01-10T01:05:19;102167.16;;;-2.74;49.34
34124;BME280;13153;52.316;21.166;2024-01-10T01:07:44;102158.53;;;-2.75;49.21
34124;BME280;13153;52.316;21.166;2024-01-10T01:10:10;102150.56;;;-2.85;49.70
34124;BME280;13153;52.316;21.166;2024-01-10T01:12:36;102146.28;;;-2.93;49.75
34124;BME280;13153;52.316;21.166;2024-01-10T01:15:02;102149.94;;;-2.91;49.96
34124;BME280;13153;52.316;21.166;2024-01-10T01:17:28;102144.81;;;-2.82;49.74
34124;BME280;13153;52.316;21.166;2024-01-10T01:19:54;102145.69;;;-2.90;49.47
34124;BME280;13153;52.316;21.166;2024-01-10T01:22:20;102136.31;;;-2.90;49.91
34124;BME280;13153;52.316;21.166;2024-01-10T01:24:45;102132.19;;;-2.88;49.56
34124;BME280;13153;52.316;21.166;2024-01-10T01:27:12;102128.88;;;-2.87;49.84
34124;BME280;13153;52.316;21.166;2024-01-10T01:29:37;102136.44;;;-2.88;49.44
34124;BME280;13153;52.316;21.166;2024-01-10T01:32:03;102129.63;;;-2.88;49.56
34124;BME280;13153;52.316;21.166;2024-01-10T01:34:30;102130.50;;;-2.96;49.84
34124;BME280;13153;52.316;21.166;2024-01-10T01:36:55;102139.47;;;-2.92;49.65
34124;BME280;13153;52.316;21.166;2024-01-10T01:39:21;102126.59;;;-2.92;49.84
34124;BME280;13153;52.316;21.166;2024-01-10T01:41:47;102126.63;;;-2.84;49.58
34124;BME280;13153;52.316;21.166;2024-01-10T01:44:13;102132.81;;;-2.90;49.97
34124;BME280;13153;52.316;21.166;2024-01-10T01:46:39;102131.06;;;-2.98;50.05
34124;BME280;13153;52.316;21.166;2024-01-10T01:49:10;102116.28;;;-3.08;50.21
34124;BME280;13153;52.316;21.166;2024-01-10T01:51:37;102123.84;;;-2.94;50.17
34124;BME280;13153;52.316;21.166;2024-01-10T01:54:07;102118.38;;;-2.97;50.05
34124;BME280;13153;52.316;21.166;2024-01-10T01:56:38;102115.38;;;-2.93;49.82
34124;BME280;13153;52.316;21.166;2024-01-10T01:59:07;102115.53;;;-2.91;49.60
34124;BME280;13153;52.316;21.166;2024-01-10T02:01:34;102117.34;;;-2.90;49.58
34124;BME280;13153;52.316;21.166;2024-01-10T02:04:03;102126.75;;;-2.91;50.02
34124;BME280;13153;52.316;21.166;2024-01-10T02:06:29;102122.50;;;-2.90;49.76
34124;BME280;13153;52.316;21.166;2024-01-10T02:08:57;102125.09;;;-2.90;50.02
34124;BME280;13153;52.316;21.166;2024-01-10T02:11:25;102123.34;;;-2.98;49.99
34124;BME280;13153;52.316;21.166;2024-01-10T02:13:51;102127.00;;;-2.96;50.08
34124;BME280;13153;52.316;21.166;2024-01-10T02:16:21;102121.44;;;-2.92;49.73
34124;BME280;13153;52.316;21.166;2024-01-10T02:18:49;102121.59;;;-2.91;49.87
34124;BME280;13153;52.316;21.166;2024-01-10T02:21:15;102119.59;;;-2.93;50.08
34124;BME280;13153;52.316;21.166;2024-01-10T02:23:41;102122.25;;;-3.01;50.33
34124;BME280;13153;52.316;21.166;2024-01-10T02:26:07;102107.81;;;-2.91;49.76
34124;BME280;13153;52.316;21.166;2024-01-10T02:28:32;102115.69;;;-2.90;50.15
34124;BME280;13153;52.316;21.166;2024-01-10T02:30:59;102108.72;;;-2.91;50.06
34124;BME280;13153;52.316;21.166;2024-01-10T02:33:25;102110.97;;;-2.94;50.05
34124;BME280;13153;52.316;21.166;2024-01-10T02:35:51;102110.53;;;-2.90;49.89
34124;BME280;13153;52.316;21.166;2024-01-10T02:38:17;102103.88;;;-2.88;49.65
34124;BME280;13153;52.316;21.166;2024-01-10T02:40:45;102093.28;;;-2.91;50.25
34124;BME280;13153;52.316;21.166;2024-01-10T02:43:11;102091.47;;;-2.83;50.01
34124;BME280;13153;52.316;21.166;2024-01-10T02:45:37;102090.69;;;-2.91;50.13
34124;BME280;13153;52.316;21.166;2024-01-10T02:48:03;102084.81;;;-3.06;50.42
34124;BME280;13153;52.316;21.166;2024-01-10T02:50:29;102087.97;;;-2.92;50.16
34124;BME280;13153;52.316;21.166;2024-01-10T02:52:54;102082.56;;;-3.03;50.60
34124;BME280;13153;52.316;21.166;2024-01-10T02:55:20;102079.81;;;-3.04;50.43
34124;BME280;13153;52.316;21.166;2024-01-10T02:57:46;102078.50;;;-3.01;50.39
34124;BME280;13153;52.316;21.166;2024-01-10T03:00:12;102074.75;;;-2.95;50.54
34124;BME280;13153;52.316;21.166;2024-01-10T03:02:38;102077.06;;;-2.90;50.29
34124;BME280;13153;52.316;21.166;2024-01-10T03:05:04;102073.19;;;-3.02;50.60
34124;BME280;13153;52.316;21.166;2024-01-10T03:07:30;102068.69;;;-2.96;50.62
34124;BME280;13153;52.316;21.166;2024-01-10T03:09:56;102071.69;;;-3.00;50.36
34124;BME280;13153;52.316;21.166;2024-01-10T03:12:22;102073.34;;;-3.01;50.79
34124;BME280;13153;52.316;21.166;2024-01-10T03:14:47;102066.88;;;-3.13;51.17
34124;BME280;13153;52.316;21.166;2024-01-10T03:17:13;102068.94;;;-3.02;50.94
34124;BME280;13153;52.316;21.166;2024-01-10T03:19:39;102075.16;;;-3.00;51.04
34124;BME280;13153;52.316;21.166;2024-01-10T03:22:09;102068.28;;;-2.92;50.59
34124;BME280;13153;52.316;21.166;2024-01-10T03:24:36;102065.09;;;-2.89;50.48
34124;BME280;13153;52.316;21.166;2024-01-10T03:27:04;102066.91;;;-2.88;50.52
34124;BME280;13153;52.316;21.166;2024-01-10T03:29:30;102067.38;;;-2.84;50.70
34124;BME280;13153;52.316;21.166;2024-01-10T03:31:56;102050.84;;;-2.86;50.24
34124;BME280;13153;52.316;21.166;2024-01-10T03:34:21;102055.41;;;-2.92;50.79
34124;BME280;13153;52.316;21.166;2024-01-10T03:36:47;102057.97;;;-2.92;50.79
34124;BME280;13153;52.316;21.166;2024-01-10T03:39:13;102066.59;;;-2.91;50.76
34124;BME280;13153;52.316;21.166;2024-01-10T03:41:39;102071.09;;;-2.97;51.21
34124;BME280;13153;52.316;21.166;2024-01-10T03:44:04;102060.53;;;-2.92;50.91
34124;BME280;13153;52.316;21.166;2024-01-10T03:46:31;102067.03;;;-2.95;51.05
34124;BME280;13153;52.316;21.166;2024-01-10T03:48:56;102068.84;;;-2.94;51.13
34124;BME280;13153;52.316;21.166;2024-01-10T03:51:22;102062.03;;;-2.94;51.10
34124;BME280;13153;52.316;21.166;2024-01-10T03:53:49;102056.88;;;-2.94;50.63
34124;BME280;13153;52.316;21.166;2024-01-10T03:56:15;102051.25;;;-2.98;50.76
34124;BME280;13153;52.316;21.166;2024-01-10T03:58:41;102055.16;;;-3.02;51.30
34124;BME280;13153;52.316;21.166;2024-01-10T04:01:08;102052.59;;;-3.02;51.15
34124;BME280;13153;52.316;21.166;2024-01-10T04:03:35;102049.25;;;-3.01;51.00
34124;BME280;13153;52.316;21.166;2024-01-10T04:06:02;102044.84;;;-3.02;51.45
34124;BME280;13153;52.316;21.166;2024-01-10T04:08:28;102042.44;;;-3.01;51.51
34124;BME280;13153;52.316;21.166;2024-01-10T04:10:54;102035.63;;;-3.00;50.99
34124;BME280;13153;52.316;21.166;2024-01-10T04:13:20;102029.91;;;-2.97;50.98
34124;BME280;13153;52.316;21.166;2024-01-10T04:15:46;102028.34;;;-3.04;50.87
34124;BME280;13153;52.316;21.166;2024-01-10T04:18:12;102017.13;;;-3.05;50.98
34124;BME280;13153;52.316;21.166;2024-01-10T04:20:37;102014.06;;;-3.09;51.62
34124;BME280;13153;52.316;21.166;2024-01-10T04:23:03;102013.75;;;-3.28;51.37
34124;BME280;13153;52.316;21.166;2024-01-10T04:25:29;102013.59;;;-3.29;51.44
34124;BME280;13153;52.316;21.166;2024-01-10T04:27:56;102009.69;;;-3.26;51.76
34124;BME280;13153;52.316;21.166;2024-01-10T04:30:23;102011.00;;;-3.29;51.85
34124;BME280;13153;52.316;21.166;2024-01-10T04:32:48;102016.66;;;-3.25;51.63
34124;BME280;13153;52.316;21.166;2024-01-10T04:35:14;102016.06;;;-3.22;51.22
34124;BME280;13153;52.316;21.166;2024-01-10T04:37:40;102026.03;;;-3.25;51.55
34124;BME280;13153;52.316;21.166;2024-01-10T04:40:06;102020.91;;;-3.25;51.29
34124;BME280;13153;52.316;21.166;2024-01-10T04:42:32;102013.16;;;-3.25;51.45
34124;BME280;13153;52.316;21.166;2024-01-10T04:44:58;102027.94;;;-3.32;51.17
34124;BME280;13153;52.316;21.166;2024-01-10T04:47:24;102028.63;;;-3.25;51.31
34124;BME280;13153;52.316;21.166;2024-01-10T04:49:49;102036.34;;;-3.25;51.16
34124;BME280;13153;52.316;21.166;2024-01-10T04:52:15;102031.50;;;-3.22;51.37
34124;BME280;13153;52.316;21.166;2024-01-10T04:54:41;102026.53;;;-3.21;50.94
34124;BME280;13153;52.316;21.166;2024-01-10T04:57:07;102032.25;;;-3.23;51.01
34124;BME280;13153;52.316;21.166;2024-01-10T04:59:35;102031.44;;;-3.31;51.37
34124;BME280;13153;52.316;21.166;2024-01-10T05:02:01;102039.06;;;-3.40;51.75
34124;BME280;13153;52.316;21.166;2024-01-10T05:04:27;102038.56;;;-3.28;51.79
34124;BME280;13153;52.316;21.166;2024-01-10T05:06:53;102044.38;;;-3.22;51.26
34124;BME280;13153;52.316;21.166;2024-01-10T05:09:18;102045.13;;;-3.23;51.13
34124;BME280;13153;52.316;21.166;2024-01-10T05:11:44;102049.63;;;-3.29;51.54
34124;BME280;13153;52.316;21.166;2024-01-10T05:14:16;102045.13;;;-3.23;51.58
34124;BME280;13153;52.316;21.166;2024-01-10T05:16:42;102036.34;;;-3.25;51.52
34124;BME280;13153;52.316;21.166;2024-01-10T05:19:07;102045.13;;;-3.23;51.77
34124;BME280;13153;52.316;21.166;2024-01-10T05:21:34;102051.78;;;-3.25;51.31
34124;BME280;13153;52.316;21.166;2024-01-10T05:24:00;102046.31;;;-3.28;51.60
34124;BME280;13153;52.316;21.166;2024-01-10T05:26:26;102057.84;;;-3.25;51.59
34124;BME280;13153;52.316;21.166;2024-01-10T05:28:51;102062.06;;;-3.25;51.63
34124;BME280;13153;52.316;21.166;2024-01-10T05:31:17;102057.25;;;-3.22;51.85
34124;BME280;13153;52.316;21.166;2024-01-10T05:33:43;102055.59;;;-3.22;51.80
34124;BME280;13153;52.316;21.166;2024-01-10T05:36:09;102054.19;;;-3.27;51.62
34124;BME280;13153;52.316;21.166;2024-01-10T05:38:38;102042.66;;;-3.30;51.73
34124;BME280;13153;52.316;21.166;2024-01-10T05:41:05;102041.22;;;-3.36;51.94
34124;BME280;13153;52.316;21.166;2024-01-10T05:43:31;102033.19;;;-3.39;52.46
34124;BME280;13153;52.316;21.166;2024-01-10T05:45:57;102034.69;;;-3.41;52.64
34124;BME280;13153;52.316;21.166;2024-01-10T05:48:24;102038.66;;;-3.36;52.48
34124;BME280;13153;52.316;21.166;2024-01-10T05:50:50;102022.91;;;-3.39;52.42
34124;BME280;13153;52.316;21.166;2024-01-10T05:53:17;102011.94;;;-3.45;52.79
34124;BME280;13153;52.316;21.166;2024-01-10T05:55:43;102020.00;;;-3.42;52.98
34124;BME280;13153;52.316;21.166;2024-01-10T05:58:10;102012.44;;;-3.40;53.38
34124;BME280;13153;52.316;21.166;2024-01-10T06:00:37;102018.44;;;-3.48;53.40
34124;BME280;13153;52.316;21.166;2024-01-10T06:03:02;102007.56;;;-3.61;54.18
34124;BME280;13153;52.316;21.166;2024-01-10T06:05:28;102011.66;;;-3.48;54.13
34124;BME280;13153;52.316;21.166;2024-01-10T06:07:54;102011.72;;;-3.55;54.66
34124;BME280;13153;52.316;21.166;2024-01-10T06:10:19;102011.91;;;-3.53;54.89
34124;BME280;13153;52.316;21.166;2024-01-10T06:12:45;102012.72;;;-3.61;55.26
34124;BME280;13153;52.316;21.166;2024-01-10T06:15:11;102012.56;;;-3.47;55.42
34124;BME280;13153;52.316;21.166;2024-01-10T06:17:37;102013.03;;;-3.43;54.97
34124;BME280;13153;52.316;21.166;2024-01-10T06:20:04;102012.84;;;-3.44;55.32
34124;BME280;13153;52.316;21.166;2024-01-10T06:22:32;102022.22;;;-3.29;54.57
34124;BME280;13153;52.316;21.166;2024-01-10T06:24:58;102027.53;;;-3.27;54.78
34124;BME280;13153;52.316;21.166;2024-01-10T06:27:24;102029.03;;;-3.29;54.76
34124;BME280;13153;52.316;21.166;2024-01-10T06:29:50;102036.00;;;-3.28;54.76
34124;BME280;13153;52.316;21.166;2024-01-10T06:32:16;102041.47;;;-3.25;54.46
34124;BME280;13153;52.316;21.166;2024-01-10T06:34:41;102045.22;;;-3.46;54.68
34124;BME280;13153;52.316;21.166;2024-01-10T06:37:07;102039.81;;;-3.41;54.66
34124;BME280;13153;52.316;21.166;2024-01-10T06:39:33;102041.91;;;-3.45;54.97
34124;BME280;13153;52.316;21.166;2024-01-10T06:42:00;102044.31;;;-3.31;55.16
34124;BME280;13153;52.316;21.166;2024-01-10T06:44:25;102044.31;;;-3.31;54.58
34124;BME280;13153;52.316;21.166;2024-01-10T06:46:53;102046.84;;;-3.55;56.08
34124;BME280;13153;52.316;21.166;2024-01-10T06:49:19;102042.06;;;-3.44;56.14
34124;BME280;13153;52.316;21.166;2024-01-10T06:51:44;102044.47;;;-3.29;55.90
34124;BME280;13153;52.316;21.166;2024-01-10T06:54:10;102041.97;;;-3.21;55.71
34124;BME280;13153;52.316;21.166;2024-01-10T06:56:36;102044.88;;;-3.18;55.82
34124;BME280;13153;52.316;21.166;2024-01-10T06:59:02;102045.72;;;-3.26;56.08
34124;BME280;13153;52.316;21.166;2024-01-10T07:01:28;102059.09;;;-3.21;56.01
34124;BME280;13153;52.316;21.166;2024-01-10T07:03:54;102060.66;;;-3.15;55.74
34124;BME280;13153;52.316;21.166;2024-01-10T07:06:21;102057.25;;;-3.07;55.96
34124;BME280;13153;52.316;21.166;2024-01-10T07:08:49;102052.59;;;-3.02;55.81
34124;BME280;13153;52.316;21.166;2024-01-10T07:11:18;102049.16;;;-2.94;55.81
34124;BME280;13153;52.316;21.166;2024-01-10T07:13:47;102062.03;;;-2.94;55.97
34124;BME280;13153;52.316;21.166;2024-01-10T07:16:13;102057.72;;;-3.02;56.52
34124;BME280;13153;52.316;21.166;2024-01-10T07:18:42;102056.06;;;-3.02;56.74
34124;BME280;13153;52.316;21.166;2024-01-10T07:21:09;102051.94;;;-3.08;56.96
34124;BME280;13153;52.316;21.166;2024-01-10T07:23:36;102050.91;;;-3.02;57.22
34124;BME280;13153;52.316;21.166;2024-01-10T07:26:06;102047.66;;;-2.92;56.70
34124;BME280;13153;52.316;21.166;2024-01-10T07:28:31;102045.41;;;-2.89;56.77
34124;BME280;13153;52.316;21.166;2024-01-10T07:30:58;102041.47;;;-2.85;57.06
34124;BME280;13153;52.316;21.166;2024-01-10T07:33:24;102036.66;;;-2.82;56.98
34124;BME280;13153;52.316;21.166;2024-01-10T07:35:49;102041.63;;;-2.84;56.83
34124;BME280;13153;52.316;21.166;2024-01-10T07:38:15;102041.63;;;-2.84;57.48
34124;BME280;13153;52.316;21.166;2024-01-10T07:40:41;102047.75;;;-2.75;57.17
34124;BME280;13153;52.316;21.166;2024-01-10T07:43:07;102040.28;;;-2.80;57.43
34124;BME280;13153;52.316;21.166;2024-01-10T07:45:33;102045.19;;;-2.75;57.16
34124;BME280;13153;52.316;21.166;2024-01-10T07:47:59;102041.44;;;-2.70;57.31
34124;BME280;13153;52.316;21.166;2024-01-10T07:50:25;102042.81;;;-2.64;57.63
34124;BME280;13153;52.316;21.166;2024-01-10T07:52:53;102038.97;;;-2.77;57.95
34124;BME280;13153;52.316;21.166;2024-01-10T07:55:19;102043.53;;;-2.74;58.31
34124;BME280;13153;52.316;21.166;2024-01-10T07:57:44;102035.53;;;-2.69;58.05
34124;BME280;13153;52.316;21.166;2024-01-10T08:00:11;102042.41;;;-2.60;58.11
34124;BME280;13153;52.316;21.166;2024-01-10T08:02:40;102039.72;;;-2.53;57.63
34124;BME280;13153;52.316;21.166;2024-01-10T08:05:07;102040.72;;;-2.60;58.49
34124;BME280;13153;52.316;21.166;2024-01-10T08:07:37;102040.72;;;-2.60;58.47
34124;BME280;13153;52.316;21.166;2024-01-10T08:10:12;102037.72;;;-2.80;59.02
34124;BME280;13153;52.316;21.166;2024-01-10T08:12:39;102028.88;;;-2.67;58.40
34124;BME280;13153;52.316;21.166;2024-01-10T08:15:07;102037.28;;;-2.76;59.01
34124;BME280;13153;52.316;21.166;2024-01-10T08:17:33;102036.16;;;-2.62;59.04
34124;BME280;13153;52.316;21.166;2024-01-10T08:19:59;102025.66;;;-2.73;59.03
34124;BME280;13153;52.316;21.166;2024-01-10T08:22:29;102031.94;;;-2.62;58.82
34124;BME280;13153;52.316;21.166;2024-01-10T08:24:55;102038.66;;;-2.55;58.84
34124;BME280;13153;52.316;21.166;2024-01-10T08:27:21;102042.06;;;-2.63;58.90
34124;BME280;13153;52.316;21.166;2024-01-10T08:29:47;102053.25;;;-2.47;58.72
34124;BME280;13153;52.316;21.166;2024-01-10T08:32:13;102043.91;;;-2.62;59.61
34124;BME280;13153;52.316;21.166;2024-01-10T08:34:38;102033.53;;;-2.47;59.16
34124;BME280;13153;52.316;21.166;2024-01-10T08:37:04;102036.75;;;-2.41;58.47
34124;BME280;13153;52.316;21.166;2024-01-10T08:39:30;102038.75;;;-2.38;58.72
34124;BME280;13153;52.316;21.166;2024-01-10T08:41:57;102038.16;;;-2.36;58.24
34124;BME280;13153;52.316;21.166;2024-01-10T08:44:23;102032.84;;;-2.28;58.57
34124;BME280;13153;52.316;21.166;2024-01-10T08:46:49;102036.31;;;-2.37;57.76
34124;BME280;13153;52.316;21.166;2024-01-10T08:49:17;102049.63;;;-2.41;58.35
34124;BME280;13153;52.316;21.166;2024-01-10T08:51:43;102065.44;;;-2.38;58.52
34124;BME280;13153;52.316;21.166;2024-01-10T08:54:09;102062.88;;;-2.29;58.36
34124;BME280;13153;52.316;21.166;2024-01-10T08:56:35;102069.69;;;-2.29;58.57
34124;BME280;13153;52.316;21.166;2024-01-10T08:59:01;102074.56;;;-2.24;58.54
34124;BME280;13153;52.316;21.166;2024-01-10T09:01:27;102070.84;;;-2.10;58.32
34124;BME280;13153;52.316;21.166;2024-01-10T09:03:52;102064.81;;;-2.02;58.05
34124;BME280;13153;52.316;21.166;2024-01-10T09:06:18;102061.34;;;-1.94;57.07
34124;BME280;13153;52.316;21.166;2024-01-10T09:08:44;102058.22;;;-1.83;57.22
34124;BME280;13153;52.316;21.166;2024-01-10T09:11:09;102060.94;;;-1.81;57.00
34124;BME280;13153;52.316;21.166;2024-01-10T09:13:35;102060.50;;;-1.77;56.88
34124;BME280;13153;52.316;21.166;2024-01-10T09:16:04;102055.78;;;-1.81;56.93
34124;BME280;13153;52.316;21.166;2024-01-10T09:18:29;102058.97;;;-1.84;56.90
34124;BME280;13153;52.316;21.166;2024-01-10T09:20:55;102056.22;;;-1.85;56.90
34124;BME280;13153;52.316;21.166;2024-01-10T09:23:21;102054.13;;;-1.81;57.22
34124;BME280;13153;52.316;21.166;2024-01-10T09:25:47;102044.56;;;-1.73;57.50
34124;BME280;13153;52.316;21.166;2024-01-10T09:28:13;102055.19;;;-1.70;57.14
34124;BME280;13153;52.316;21.166;2024-01-10T09:30:39;102056.25;;;-1.68;56.88
34124;BME280;13153;52.316;21.166;2024-01-10T09:33:05;102059.00;;;-1.75;57.02
34124;BME280;13153;52.316;21.166;2024-01-10T09:35:30;102062.50;;;-1.75;57.26
34124;BME280;13153;52.316;21.166;2024-01-10T09:37:56;102061.72;;;-1.74;57.43
34124;BME280;13153;52.316;21.166;2024-01-10T09:40:22;102057.59;;;-1.72;57.22
34124;BME280;13153;52.316;21.166;2024-01-10T09:42:51;102064.91;;;-1.68;57.32
34124;BME280;13153;52.316;21.166;2024-01-10T09:45:18;102059.91;;;-1.66;57.53
34124;BME280;13153;52.316;21.166;2024-01-10T09:47:50;102054.59;;;-1.59;57.50
34124;BME280;13153;52.316;21.166;2024-01-10T09:50:17;102048.84;;;-1.56;57.19
34124;BME280;13153;52.316;21.166;2024-01-10T09:52:58;102057.50;;;-1.56;57.45
34124;BME280;13153;52.316;21.166;2024-01-10T09:55:36;102052.94;;;-1.58;57.11
34124;BME280;13153;52.316;21.166;2024-01-10T09:58:05;102045.66;;;-1.54;57.08
34124;BME280;13153;52.316;21.166;2024-01-10T10:00:34;102052.03;;;-1.50;57.23
34124;BME280;13153;52.316;21.166;2024-01-10T10:03:04;102051.59;;;-1.46;57.13
34124;BME280;13153;52.316;21.166;2024-01-10T10:05:31;102052.97;;;-1.50;57.37
34124;BME280;13153;52.316;21.166;2024-01-10T10:07:59;102049.00;;;-1.46;57.23
34124;BME280;13153;52.316;21.166;2024-01-10T10:10:25;102042.66;;;-1.41;57.29
34124;BME280;13153;52.316;21.166;2024-01-10T10:12:53;102043.53;;;-1.49;57.76
34124;BME280;13153;52.316;21.166;2024-01-10T10:15:23;102035.63;;;-1.68;58.26
34124;BME280;13153;52.316;21.166;2024-01-10T10:17:50;102046.84;;;-1.68;57.99
34124;BME280;13153;52.316;21.166;2024-01-10T10:20:26;102051.72;;;-1.62;58.31
34124;BME280;13153;52.316;21.166;2024-01-10T10:23:07;102045.66;;;-1.54;57.93
34124;BME280;13153;52.316;21.166;2024-01-10T10:25:42;102039.28;;;-1.49;58.09
34124;BME280;13153;52.316;21.166;2024-01-10T10:28:08;102042.31;;;-1.53;57.87
34124;BME280;13153;52.316;21.166;2024-01-10T10:30:34;102032.47;;;-1.48;57.77
34124;BME280;13153;52.316;21.166;2024-01-10T10:33:02;102036.41;;;-1.43;57.86
34124;BME280;13153;52.316;21.166;2024-01-10T10:35:28;102027.47;;;-1.38;58.01
34124;BME280;13153;52.316;21.166;2024-01-10T10:37:54;102030.19;;;-1.37;57.87
34124;BME280;13153;52.316;21.166;2024-01-10T10:40:21;102022.59;;;-1.44;57.83
34124;BME280;13153;52.316;21.166;2024-01-10T10:42:56;102024.88;;;-1.38;57.65
34124;BME280;13153;52.316;21.166;2024-01-10T10:45:23;102013.19;;;-1.35;57.28
34124;BME280;13153;52.316;21.166;2024-01-10T10:48:00;102018.22;;;-1.27;57.67
34124;BME280;13153;52.316;21.166;2024-01-10T10:50:32;102008.66;;;-1.20;57.40
34124;BME280;13153;52.316;21.166;2024-01-10T10:53:00;102009.06;;;-1.15;57.67
34124;BME280;13153;52.316;21.166;2024-01-10T10:55:29;102006.06;;;-1.20;58.03
34124;BME280;13153;52.316;21.166;2024-01-10T10:57:56;102001.63;;;-1.12;57.89
34124;BME280;13153;52.316;21.166;2024-01-10T11:00:23;101993.88;;;-1.04;57.65
34124;BME280;13153;52.316;21.166;2024-01-10T11:02:56;101998.13;;;-0.95;57.04
34124;BME280;13153;52.316;21.166;2024-01-10T11:05:26;102007.38;;;-0.89;57.29
34124;BME280;13153;52.316;21.166;2024-01-10T11:07:53;101994.44;;;-0.80;57.01
34124;BME280;13153;52.316;21.166;2024-01-10T11:10:28;101987.41;;;-0.64;57.00
34124;BME280;13153;52.316;21.166;2024-01-10T11:13:27;101987.22;;;-0.57;56.81
34124;BME280;13153;52.316;21.166;2024-01-10T11:24:06;101984.72;;;-0.38;56.07
34124;BME280;13153;52.316;21.166;2024-01-10T11:26:39;101977.00;;;-0.47;56.34
34124;BME280;13153;52.316;21.166;2024-01-10T11:29:05;101964.09;;;-0.55;56.36
34124;BME280;13153;52.316;21.166;2024-01-10T11:31:32;101967.09;;;-0.42;56.50
34124;BME280;13153;52.316;21.166;2024-01-10T11:34:01;101960.81;;;-0.36;56.49
34124;BME280;13153;52.316;21.166;2024-01-10T11:36:27;101957.91;;;-0.30;56.16
34124;BME280;13153;52.316;21.166;2024-01-10T11:38:58;101952.63;;;-0.40;56.25
34124;BME280;13153;52.316;21.166;2024-01-10T11:41:27;101962.53;;;-0.45;56.33
34124;BME280;13153;52.316;21.166;2024-01-10T11:46:53;101955.53;;;-0.46;56.52
34124;BME280;13153;52.316;21.166;2024-01-10T11:49:21;101952.16;;;-0.36;56.15
34124;BME280;13153;52.316;21.166;2024-01-10T11:51:55;101952.34;;;-0.43;56.83
34124;BME280;13153;52.316;21.166;2024-01-10T11:54:40;101941.63;;;-0.29;56.17
34124;BME280;13153;52.316;21.166;2024-01-10T11:57:27;101941.97;;;-0.35;56.61
34124;BME280;13153;52.316;21.166;2024-01-10T11:59:55;101942.75;;;-0.44;56.79
34124;BME280;13153;52.316;21.166;2024-01-10T12:02:23;101946.88;;;-0.46;57.15
34124;BME280;13153;52.316;21.166;2024-01-10T12:04:53;101940.63;;;-0.40;57.03
34124;BME280;13153;52.316;21.166;2024-01-10T12:07:20;101944.50;;;-0.26;56.54
34124;BME280;13153;52.316;21.166;2024-01-10T12:09:47;101947.56;;;-0.30;57.28
34124;BME280;13153;52.316;21.166;2024-01-10T12:12:14;101950.34;;;-0.37;57.33
34124;BME280;13153;52.316;21.166;2024-01-10T12:14:41;101952.81;;;-0.47;57.88
34124;BME280;13153;52.316;21.166;2024-01-10T12:17:08;101956.16;;;-0.48;58.09
34124;BME280;13153;52.316;21.166;2024-01-10T12:19:35;101956.69;;;-0.61;58.13
34124;BME280;13153;52.316;21.166;2024-01-10T12:22:04;101956.09;;;-0.58;58.44
34124;BME280;13153;52.316;21.166;2024-01-10T12:24:31;101946.59;;;-0.49;58.28
34124;BME280;13153;52.316;21.166;2024-01-10T12:26:57;101946.84;;;-0.38;58.00
34124;BME280;13153;52.316;21.166;2024-01-10T12:29:23;101943.75;;;-0.25;57.56
34124;BME280;13153;52.316;21.166;2024-01-10T12:31:51;101936.84;;;-0.16;57.40
34124;BME280;13153;52.316;21.166;2024-01-10T12:34:17;101927.41;;;-0.15;56.69
34124;BME280;13153;52.316;21.166;2024-01-10T12:36:43;101922.00;;;-0.27;56.97
34124;BME280;13153;52.316;21.166;2024-01-10T12:39:11;101915.44;;;-0.23;57.54
34124;BME280;13153;52.316;21.166;2024-01-10T12:41:37;101918.47;;;-0.19;57.03
34124;BME280;13153;52.316;21.166;2024-01-10T12:44:04;101917.84;;;-0.16;56.90
34124;BME280;13153;52.316;21.166;2024-01-10T12:46:32;101923.19;;;-0.23;57.56
34124;BME280;13153;52.316;21.166;2024-01-10T12:49:06;101908.59;;;-0.23;57.26
34124;BME280;13153;52.316;21.166;2024-01-10T12:51:34;101911.28;;;-0.13;57.22